sensor_id;sensor_type;location;lat;lon;timestamp;P1;durP1;ratioP1;P2;durP2;ratioP2
5987;SDS011;3021;51.000;6.980;2023-07-20T00:02:11;8.05;;;3.17;;
5987;SDS011;3021;51.000;6.980;2023-07-20T00:04:36;7.95;;;3.78;;
5987;SDS011;3021;51.000;6.980;2023-07-20T00:07:03;7.75;;;3.58;;
5987;SDS011;3021;51.000;6.980;2023-07-20T00:09:28;10.95;;;3.83;;
5987;SDS011;3021;51.000;6.980;2023-07-20T00:11:54;8.05;;;4.00;;
5987;SDS011;3021;51.000;6.980;2023-07-20T00:14:19;8.45;;;4.32;;
5987;SDS011;3021;51.000;6.980;2023-07-20T00:16:45;7.68;;;3.60;;
5987;SDS011;3021;51.000;6.980;2023-07-20T00:19:11;8.40;;;3.75;;
5987;SDS011;3021;51.000;6.980;2023-07-20T00:21:37;6.38;;;3.33;;
5987;SDS011;3021;51.000;6.980;2023-07-20T00:24:05;6.82;;;3.47;;
5987;SDS011;3021;51.000;6.980;2023-07-20T00:26:31;8.82;;;3.80;;
5987;SDS011;3021;51.000;6.980;2023-07-20T00:28:56;9.43;;;3.92;;
5987;SDS011;3021;51.000;6.980;2023-07-20T00:31:22;10.32;;;4.13;;
5987;SDS011;3021;51.000;6.980;2023-07-20T00:33:47;5.82;;;3.22;;
5987;SDS011;3021;51.000;6.980;2023-07-20T00:36:13;6.75;;;3.38;;
5987;SDS011;3021;51.000;6.980;2023-07-20T00:38:39;6.07;;;3.22;;
5987;SDS011;3021;51.000;6.980;2023-07-20T00:41:04;10.85;;;3.55;;
5987;SDS011;3021;51.000;6.980;2023-07-20T00:43:29;4.95;;;3.60;;
5987;SDS011;3021;51.000;6.980;2023-07-20T00:45:55;6.90;;;3.75;;
5987;SDS011;3021;51.000;6.980;2023-07-20T00:48:21;7.03;;;3.45;;
5987;SDS011;3021;51.000;6.980;2023-07-20T00:50:47;8.77;;;3.60;;
5987;SDS011;3021;51.000;6.980;2023-07-20T00:53:13;8.35;;;3.47;;
5987;SDS011;3021;51.000;6.980;2023-07-20T00:55:39;5.30;;;3.65;;
5987;SDS011;3021;51.000;6.980;2023-07-20T00:58:04;7.18;;;3.58;;
5987;SDS011;3021;51.000;6.980;2023-07-20T01:00:30;5.25;;;3.03;;
5987;SDS011;3021;51.000;6.980;2023-07-20T01:02:55;7.57;;;3.50;;
5987;SDS011;3021;51.000;6.980;2023-07-20T01:05:21;5.40;;;3.42;;
5987;SDS011;3021;51.000;6.980;2023-07-20T01:08:00;7.10;;;3.28;;
5987;SDS011;3021;51.000;6.980;2023-07-20T01:10:33;7.70;;;3.35;;
5987;SDS011;3021;51.000;6.980;2023-07-20T01:13:09;4.80;;;2.92;;
5987;SDS011;3021;51.000;6.980;2023-07-20T01:15:35;8.15;;;3.08;;
5987;SDS011;3021;51.000;6.980;2023-07-20T01:18:01;8.32;;;3.22;;
5987;SDS011;3021;51.000;6.980;2023-07-20T01:20:26;7.93;;;3.30;;
5987;SDS011;3021;51.000;6.980;2023-07-20T01:31:40;5.35;;;3.65;;
5987;SDS011;3021;51.000;6.980;2023-07-20T01:34:08;6.10;;;2.90;;
5987;SDS011;3021;51.000;6.980;2023-07-20T01:36:36;10.07;;;3.50;;
5987;SDS011;3021;51.000;6.980;2023-07-20T01:39:02;9.23;;;3.35;;
5987;SDS011;3021;51.000;6.980;2023-07-20T01:41:29;6.93;;;3.10;;
5987;SDS011;3021;51.000;6.980;2023-07-20T01:43:57;7.07;;;3.00;;
5987;SDS011;3021;51.000;6.980;2023-07-20T01:46:23;6.35;;;3.03;;
5987;SDS011;3021;51.000;6.980;2023-07-20T01:48:49;5.32;;;3.30;;
5987;SDS011;3021;51.000;6.980;2023-07-20T01:51:15;6.60;;;3.83;;
5987;SDS011;3021;51.000;6.980;2023-07-20T01:53:42;7.32;;;3.55;;
5987;SDS011;3021;51.000;6.980;2023-07-20T01:56:08;6.22;;;3.08;;
5987;SDS011;3021;51.000;6.980;2023-07-20T01:58:33;5.82;;;3.28;;
5987;SDS011;3021;51.000;6.980;2023-07-20T02:00:58;5.57;;;3.10;;
5987;SDS011;3021;51.000;6.980;2023-07-20T02:03:24;6.32;;;3.58;;
5987;SDS011;3021;51.000;6.980;2023-07-20T02:05:51;6.93;;;3.20;;
5987;SDS011;3021;51.000;6.980;2023-07-20T02:08:17;5.28;;;3.35;;
5987;SDS011;3021;51.000;6.980;2023-07-20T02:10:44;4.15;;;3.00;;
5987;SDS011;3021;51.000;6.980;2023-07-20T02:13:11;4.70;;;3.05;;
5987;SDS011;3021;51.000;6.980;2023-07-20T02:15:36;5.15;;;2.90;;
5987;SDS011;3021;51.000;6.980;2023-07-20T02:18:01;5.75;;;3.10;;
5987;SDS011;3021;51.000;6.980;2023-07-20T02:20:28;8.70;;;3.28;;
5987;SDS011;3021;51.000;6.980;2023-07-20T02:22:53;4.82;;;2.78;;
5987;SDS011;3021;51.000;6.980;2023-07-20T02:25:19;4.90;;;3.05;;
5987;SDS011;3021;51.000;6.980;2023-07-20T02:27:44;6.90;;;3.15;;
5987;SDS011;3021;51.000;6.980;2023-07-20T02:30:09;5.45;;;2.75;;
5987;SDS011;3021;51.000;6.980;2023-07-20T02:32:35;5.43;;;2.90;;
5987;SDS011;3021;51.000;6.980;2023-07-20T02:35:01;3.67;;;2.95;;
5987;SDS011;3021;51.000;6.980;2023-07-20T02:37:28;6.40;;;3.35;;
5987;SDS011;3021;51.000;6.980;2023-07-20T02:39:54;6.35;;;3.08;;
5987;SDS011;3021;51.000;6.980;2023-07-20T02:42:19;7.25;;;3.17;;
5987;SDS011;3021;51.000;6.980;2023-07-20T02:44:47;8.70;;;3.47;;
5987;SDS011;3021;51.000;6.980;2023-07-20T02:47:13;6.95;;;3.67;;
5987;SDS011;3021;51.000;6.980;2023-07-20T02:49:38;6.30;;;2.95;;
5987;SDS011;3021;51.000;6.980;2023-07-20T02:52:04;5.05;;;3.40;;
5987;SDS011;3021;51.000;6.980;2023-07-20T02:54:30;5.53;;;3.03;;
5987;SDS011;3021;51.000;6.980;2023-07-20T02:56:55;5.40;;;3.40;;
5987;SDS011;3021;51.000;6.980;2023-07-20T02:59:21;7.18;;;3.60;;
5987;SDS011;3021;51.000;6.980;2023-07-20T03:01:46;6.30;;;3.72;;
5987;SDS011;3021;51.000;6.980;2023-07-20T03:04:11;5.60;;;3.88;;
5987;SDS011;3021;51.000;6.980;2023-07-20T03:06:37;6.22;;;3.53;;
5987;SDS011;3021;51.000;6.980;2023-07-20T03:09:02;7.05;;;3.78;;
5987;SDS011;3021;51.000;6.980;2023-07-20T03:11:28;7.38;;;3.92;;
5987;SDS011;3021;51.000;6.980;2023-07-20T03:13:54;5.88;;;4.05;;
5987;SDS011;3021;51.000;6.980;2023-07-20T03:16:19;7.28;;;3.75;;
5987;SDS011;3021;51.000;6.980;2023-07-20T03:18:45;9.23;;;4.03;;
5987;SDS011;3021;51.000;6.980;2023-07-20T03:21:11;8.65;;;4.70;;
5987;SDS011;3021;51.000;6.980;2023-07-20T03:23:37;9.25;;;3.83;;
5987;SDS011;3021;51.000;6.980;2023-07-20T03:26:02;8.77;;;3.50;;
5987;SDS011;3021;51.000;6.980;2023-07-20T03:28:28;7.88;;;3.75;;
5987;SDS011;3021;51.000;6.980;2023-07-20T03:30:53;6.85;;;3.80;;
5987;SDS011;3021;51.000;6.980;2023-07-20T03:33:20;7.25;;;3.75;;
5987;SDS011;3021;51.000;6.980;2023-07-20T03:35:47;10.30;;;4.28;;
5987;SDS011;3021;51.000;6.980;2023-07-20T03:38:12;6.47;;;4.30;;
5987;SDS011;3021;51.000;6.980;2023-07-20T03:40:37;6.93;;;3.55;;
5987;SDS011;3021;51.000;6.980;2023-07-20T03:43:03;9.30;;;4.10;;
5987;SDS011;3021;51.000;6.980;2023-07-20T03:45:28;11.35;;;4.22;;
5987;SDS011;3021;51.000;6.980;2023-07-20T03:47:53;4.72;;;3.25;;
5987;SDS011;3021;51.000;6.980;2023-07-20T03:50:19;7.38;;;3.92;;
5987;SDS011;3021;51.000;6.980;2023-07-20T03:52:44;8.88;;;3.50;;
5987;SDS011;3021;51.000;6.980;2023-07-20T03:55:10;9.07;;;4.20;;
5987;SDS011;3021;51.000;6.980;2023-07-20T03:57:35;9.35;;;4.03;;
5987;SDS011;3021;51.000;6.980;2023-07-20T04:00:00;10.52;;;3.85;;
5987;SDS011;3021;51.000;6.980;2023-07-20T04:02:26;9.88;;;3.90;;
5987;SDS011;3021;51.000;6.980;2023-07-20T04:04:51;10.40;;;4.22;;
5987;SDS011;3021;51.000;6.980;2023-07-20T04:07:16;5.00;;;3.30;;
5987;SDS011;3021;51.000;6.980;2023-07-20T04:09:41;10.30;;;3.90;;
5987;SDS011;3021;51.000;6.980;2023-07-20T04:12:07;9.18;;;3.42;;
5987;SDS011;3021;51.000;6.980;2023-07-20T04:14:32;6.95;;;3.75;;
5987;SDS011;3021;51.000;6.980;2023-07-20T04:16:58;6.60;;;3.20;;
5987;SDS011;3021;51.000;6.980;2023-07-20T04:19:25;5.75;;;3.38;;
5987;SDS011;3021;51.000;6.980;2023-07-20T04:21:50;8.35;;;3.63;;
5987;SDS011;3021;51.000;6.980;2023-07-20T04:24:16;11.05;;;4.70;;
5987;SDS011;3021;51.000;6.980;2023-07-20T04:26:41;6.57;;;3.22;;
5987;SDS011;3021;51.000;6.980;2023-07-20T04:29:06;5.05;;;3.67;;
5987;SDS011;3021;51.000;6.980;2023-07-20T04:31:32;7.93;;;4.20;;
5987;SDS011;3021;51.000;6.980;2023-07-20T04:33:58;11.15;;;4.30;;
5987;SDS011;3021;51.000;6.980;2023-07-20T04:36:23;12.82;;;4.18;;
5987;SDS011;3021;51.000;6.980;2023-07-20T04:38:49;9.73;;;3.35;;
5987;SDS011;3021;51.000;6.980;2023-07-20T04:41:14;11.60;;;4.68;;
5987;SDS011;3021;51.000;6.980;2023-07-20T04:43:43;9.48;;;4.22;;
5987;SDS011;3021;51.000;6.980;2023-07-20T04:46:09;9.65;;;4.32;;
5987;SDS011;3021;51.000;6.980;2023-07-20T04:48:37;9.18;;;4.45;;
5987;SDS011;3021;51.000;6.980;2023-07-20T04:51:03;9.80;;;4.47;;
5987;SDS011;3021;51.000;6.980;2023-07-20T04:53:29;13.65;;;4.97;;
5987;SDS011;3021;51.000;6.980;2023-07-20T04:55:54;10.30;;;4.15;;
5987;SDS011;3021;51.000;6.980;2023-07-20T04:58:23;11.00;;;3.92;;
5987;SDS011;3021;51.000;6.980;2023-07-20T05:00:48;10.65;;;4.60;;
5987;SDS011;3021;51.000;6.980;2023-07-20T05:03:14;9.18;;;4.57;;
5987;SDS011;3021;51.000;6.980;2023-07-20T05:05:39;9.20;;;5.07;;
5987;SDS011;3021;51.000;6.980;2023-07-20T05:08:05;11.07;;;5.22;;
5987;SDS011;3021;51.000;6.980;2023-07-20T05:10:30;10.57;;;5.13;;
5987;SDS011;3021;51.000;6.980;2023-07-20T05:12:55;11.57;;;5.13;;
5987;SDS011;3021;51.000;6.980;2023-07-20T05:15:21;9.57;;;5.25;;
5987;SDS011;3021;51.000;6.980;2023-07-20T05:17:46;14.35;;;5.45;;
5987;SDS011;3021;51.000;6.980;2023-07-20T05:20:13;13.55;;;5.00;;
5987;SDS011;3021;51.000;6.980;2023-07-20T05:22:39;10.07;;;5.53;;
5987;SDS011;3021;51.000;6.980;2023-07-20T05:25:05;10.13;;;4.90;;
5987;SDS011;3021;51.000;6.980;2023-07-20T05:27:38;14.13;;;5.28;;
5987;SDS011;3021;51.000;6.980;2023-07-20T05:30:05;10.25;;;4.93;;
5987;SDS011;3021;51.000;6.980;2023-07-20T05:32:32;12.25;;;5.00;;
5987;SDS011;3021;51.000;6.980;2023-07-20T05:34:57;14.23;;;5.20;;
5987;SDS011;3021;51.000;6.980;2023-07-20T05:37:23;12.30;;;5.32;;
5987;SDS011;3021;51.000;6.980;2023-07-20T05:39:48;12.63;;;5.30;;
5987;SDS011;3021;51.000;6.980;2023-07-20T05:42:13;10.77;;;5.35;;
5987;SDS011;3021;51.000;6.980;2023-07-20T05:44:39;12.98;;;5.70;;
5987;SDS011;3021;51.000;6.980;2023-07-20T05:47:05;12.07;;;5.93;;
5987;SDS011;3021;51.000;6.980;2023-07-20T05:49:30;14.55;;;5.43;;
5987;SDS011;3021;51.000;6.980;2023-07-20T05:51:55;14.65;;;6.07;;
5987;SDS011;3021;51.000;6.980;2023-07-20T05:54:22;13.65;;;6.78;;
5987;SDS011;3021;51.000;6.980;2023-07-20T05:56:49;11.75;;;6.03;;
5987;SDS011;3021;51.000;6.980;2023-07-20T05:59:14;14.77;;;6.40;;
5987;SDS011;3021;51.000;6.980;2023-07-20T06:01:40;12.00;;;5.88;;
5987;SDS011;3021;51.000;6.980;2023-07-20T06:04:05;16.38;;;7.30;;
5987;SDS011;3021;51.000;6.980;2023-07-20T06:06:30;12.93;;;6.15;;
5987;SDS011;3021;51.000;6.980;2023-07-20T06:08:56;15.68;;;6.63;;
5987;SDS011;3021;51.000;6.980;2023-07-20T06:11:21;12.75;;;5.88;;
5987;SDS011;3021;51.000;6.980;2023-07-20T06:13:46;17.67;;;7.20;;
5987;SDS011;3021;51.000;6.980;2023-07-20T06:16:12;11.20;;;6.35;;
5987;SDS011;3021;51.000;6.980;2023-07-20T06:18:37;11.60;;;7.85;;
5987;SDS011;3021;51.000;6.980;2023-07-20T06:21:03;12.45;;;8.45;;
5987;SDS011;3021;51.000;6.980;2023-07-20T06:23:28;15.63;;;8.00;;
5987;SDS011;3021;51.000;6.980;2023-07-20T06:25:53;14.82;;;6.88;;
5987;SDS011;3021;51.000;6.980;2023-07-20T06:28:19;13.10;;;7.88;;
5987;SDS011;3021;51.000;6.980;2023-07-20T06:30:44;11.60;;;6.53;;
5987;SDS011;3021;51.000;6.980;2023-07-20T06:33:09;10.10;;;6.35;;
5987;SDS011;3021;51.000;6.980;2023-07-20T06:35:35;13.93;;;8.07;;
5987;SDS011;3021;51.000;6.980;2023-07-20T06:38:01;14.70;;;8.32;;
5987;SDS011;3021;51.000;6.980;2023-07-20T06:40:29;14.93;;;8.52;;
5987;SDS011;3021;51.000;6.980;2023-07-20T06:42:57;12.32;;;7.78;;
5987;SDS011;3021;51.000;6.980;2023-07-20T06:45:22;11.15;;;7.97;;
5987;SDS011;3021;51.000;6.980;2023-07-20T06:47:47;13.43;;;9.00;;
5987;SDS011;3021;51.000;6.980;2023-07-20T06:50:13;15.32;;;8.13;;
5987;SDS011;3021;51.000;6.980;2023-07-20T06:52:38;12.98;;;7.90;;
5987;SDS011;3021;51.000;6.980;2023-07-20T06:55:05;12.95;;;7.82;;
5987;SDS011;3021;51.000;6.980;2023-07-20T06:57:31;12.27;;;8.13;;
5987;SDS011;3021;51.000;6.980;2023-07-20T06:59:56;13.10;;;7.90;;
5987;SDS011;3021;51.000;6.980;2023-07-20T07:02:22;16.25;;;8.27;;
5987;SDS011;3021;51.000;6.980;2023-07-20T07:04:47;12.40;;;7.68;;
5987;SDS011;3021;51.000;6.980;2023-07-20T07:07:15;13.20;;;8.32;;
5987;SDS011;3021;51.000;6.980;2023-07-20T07:09:41;10.60;;;7.72;;
5987;SDS011;3021;51.000;6.980;2023-07-20T07:12:07;12.27;;;7.75;;
5987;SDS011;3021;51.000;6.980;2023-07-20T07:14:33;14.35;;;8.38;;
5987;SDS011;3021;51.000;6.980;2023-07-20T07:16:58;10.05;;;7.57;;
5987;SDS011;3021;51.000;6.980;2023-07-20T07:19:24;13.93;;;7.90;;
5987;SDS011;3021;51.000;6.980;2023-07-20T07:21:49;12.10;;;7.82;;
5987;SDS011;3021;51.000;6.980;2023-07-20T07:24:15;8.98;;;6.80;;
5987;SDS011;3021;51.000;6.980;2023-07-20T07:26:41;8.25;;;6.50;;
5987;SDS011;3021;51.000;6.980;2023-07-20T07:29:06;10.52;;;6.40;;
5987;SDS011;3021;51.000;6.980;2023-07-20T07:31:33;18.80;;;7.05;;
5987;SDS011;3021;51.000;6.980;2023-07-20T07:34:00;14.52;;;6.57;;
5987;SDS011;3021;51.000;6.980;2023-07-20T07:36:25;8.30;;;5.20;;
5987;SDS011;3021;51.000;6.980;2023-07-20T07:38:51;11.05;;;5.22;;
5987;SDS011;3021;51.000;6.980;2023-07-20T07:41:16;8.20;;;5.10;;
5987;SDS011;3021;51.000;6.980;2023-07-20T07:43:41;9.10;;;4.60;;
5987;SDS011;3021;51.000;6.980;2023-07-20T07:46:07;9.18;;;4.78;;
5987;SDS011;3021;51.000;6.980;2023-07-20T07:48:33;10.48;;;4.78;;
5987;SDS011;3021;51.000;6.980;2023-07-20T07:50:58;7.88;;;5.25;;
5987;SDS011;3021;51.000;6.980;2023-07-20T07:53:23;5.85;;;4.50;;
5987;SDS011;3021;51.000;6.980;2023-07-20T07:55:51;5.65;;;4.30;;
5987;SDS011;3021;51.000;6.980;2023-07-20T07:58:16;7.82;;;5.20;;
5987;SDS011;3021;51.000;6.980;2023-07-20T08:00:41;8.95;;;4.95;;
5987;SDS011;3021;51.000;6.980;2023-07-20T08:03:08;7.20;;;5.10;;
5987;SDS011;3021;51.000;6.980;2023-07-20T08:05:33;9.18;;;5.57;;
5987;SDS011;3021;51.000;6.980;2023-07-20T08:08:00;10.93;;;4.80;;
5987;SDS011;3021;51.000;6.980;2023-07-20T08:10:25;6.70;;;4.90;;
5987;SDS011;3021;51.000;6.980;2023-07-20T08:12:51;5.97;;;4.55;;
5987;SDS011;3021;51.000;6.980;2023-07-20T08:15:16;10.85;;;4.47;;
5987;SDS011;3021;51.000;6.980;2023-07-20T08:17:42;8.15;;;4.05;;
5987;SDS011;3021;51.000;6.980;2023-07-20T08:20:09;5.45;;;4.18;;
5987;SDS011;3021;51.000;6.980;2023-07-20T08:22:37;5.25;;;4.03;;
5987;SDS011;3021;51.000;6.980;2023-07-20T08:25:03;6.13;;;3.33;;
5987;SDS011;3021;51.000;6.980;2023-07-20T08:27:29;5.78;;;3.30;;
5987;SDS011;3021;51.000;6.980;2023-07-20T08:29:54;3.15;;;2.40;;
5987;SDS011;3021;51.000;6.980;2023-07-20T08:32:20;3.63;;;2.50;;
5987;SDS011;3021;51.000;6.980;2023-07-20T08:34:45;4.68;;;1.90;;
5987;SDS011;3021;51.000;6.980;2023-07-20T08:37:11;4.07;;;2.13;;
5987;SDS011;3021;51.000;6.980;2023-07-20T08:39:36;3.78;;;2.33;;
5987;SDS011;3021;51.000;6.980;2023-07-20T08:42:01;4.85;;;2.17;;
5987;SDS011;3021;51.000;6.980;2023-07-20T08:44:34;2.17;;;1.70;;
5987;SDS011;3021;51.000;6.980;2023-07-20T08:47:02;4.28;;;1.70;;
5987;SDS011;3021;51.000;6.980;2023-07-20T08:49:29;4.28;;;2.00;;
5987;SDS011;3021;51.000;6.980;2023-07-20T08:51:57;5.32;;;2.20;;
5987;SDS011;3021;51.000;6.980;2023-07-20T08:54:24;2.60;;;1.80;;
5987;SDS011;3021;51.000;6.980;2023-07-20T08:56:51;3.17;;;1.67;;
5987;SDS011;3021;51.000;6.980;2023-07-20T08:59:17;5.57;;;1.90;;
5987;SDS011;3021;51.000;6.980;2023-07-20T09:01:43;2.13;;;1.00;;
5987;SDS011;3021;51.000;6.980;2023-07-20T09:04:09;1.55;;;1.13;;
5987;SDS011;3021;51.000;6.980;2023-07-20T09:06:36;4.22;;;1.48;;
5987;SDS011;3021;51.000;6.980;2023-07-20T09:09:01;4.03;;;1.50;;
5987;SDS011;3021;51.000;6.980;2023-07-20T09:11:27;2.25;;;1.75;;
5987;SDS011;3021;51.000;6.980;2023-07-20T09:14:02;3.22;;;1.90;;
5987;SDS011;3021;51.000;6.980;2023-07-20T09:16:55;5.32;;;1.60;;
5987;SDS011;3021;51.000;6.980;2023-07-20T09:21:50;2.95;;;1.20;;
5987;SDS011;3021;51.000;6.980;2023-07-20T09:24:19;3.45;;;1.17;;
5987;SDS011;3021;51.000;6.980;2023-07-20T09:26:46;2.08;;;1.38;;
5987;SDS011;3021;51.000;6.980;2023-07-20T09:29:13;3.05;;;1.15;;
5987;SDS011;3021;51.000;6.980;2023-07-20T09:31:39;2.33;;;1.30;;
5987;SDS011;3021;51.000;6.980;2023-07-20T09:34:07;1.85;;;1.20;;
5987;SDS011;3021;51.000;6.980;2023-07-20T09:36:33;2.72;;;1.20;;
5987;SDS011;3021;51.000;6.980;2023-07-20T09:39:00;3.45;;;1.55;;
5987;SDS011;3021;51.000;6.980;2023-07-20T09:41:26;4.60;;;2.10;;
5987;SDS011;3021;51.000;6.980;2023-07-20T09:43:51;2.50;;;2.03;;
5987;SDS011;3021;51.000;6.980;2023-07-20T09:46:18;4.95;;;1.80;;
5987;SDS011;3021;51.000;6.980;2023-07-20T09:48:54;3.22;;;2.20;;
5987;SDS011;3021;51.000;6.980;2023-07-20T09:51:23;3.28;;;1.90;;
5987;SDS011;3021;51.000;6.980;2023-07-20T09:53:49;4.07;;;1.40;;
5987;SDS011;3021;51.000;6.980;2023-07-20T09:56:18;2.28;;;1.38;;
5987;SDS011;3021;51.000;6.980;2023-07-20T09:58:46;2.30;;;1.35;;
5987;SDS011;3021;51.000;6.980;2023-07-20T10:01:13;4.97;;;1.63;;
5987;SDS011;3021;51.000;6.980;2023-07-20T10:03:46;2.70;;;1.50;;
5987;SDS011;3021;51.000;6.980;2023-07-20T10:06:13;11.40;;;3.45;;
5987;SDS011;3021;51.000;6.980;2023-07-20T10:08:45;5.65;;;2.97;;
5987;SDS011;3021;51.000;6.980;2023-07-20T10:11:12;5.75;;;1.70;;
5987;SDS011;3021;51.000;6.980;2023-07-20T10:13:40;2.72;;;1.85;;
5987;SDS011;3021;51.000;6.980;2023-07-20T10:21:33;1.30;;;1.13;;
5987;SDS011;3021;51.000;6.980;2023-07-20T10:24:02;2.13;;;1.45;;
5987;SDS011;3021;51.000;6.980;2023-07-20T10:26:28;3.15;;;1.35;;
5987;SDS011;3021;51.000;6.980;2023-07-20T10:28:53;2.22;;;1.20;;
5987;SDS011;3021;51.000;6.980;2023-07-20T10:31:19;1.63;;;1.17;;
5987;SDS011;3021;51.000;6.980;2023-07-20T10:33:45;2.28;;;1.40;;
5987;SDS011;3021;51.000;6.980;2023-07-20T10:36:11;2.70;;;1.63;;
5987;SDS011;3021;51.000;6.980;2023-07-20T10:38:40;2.03;;;1.10;;
5987;SDS011;3021;51.000;6.980;2023-07-20T10:43:42;2.50;;;0.90;;
5987;SDS011;3021;51.000;6.980;2023-07-20T10:46:10;1.92;;;1.15;;
5987;SDS011;3021;51.000;6.980;2023-07-20T10:48:36;2.85;;;1.55;;
5987;SDS011;3021;51.000;6.980;2023-07-20T10:51:26;5.07;;;1.52;;
5987;SDS011;3021;51.000;6.980;2023-07-20T10:53:52;2.05;;;1.50;;
5987;SDS011;3021;51.000;6.980;2023-07-20T10:56:20;2.45;;;1.30;;
5987;SDS011;3021;51.000;6.980;2023-07-20T10:58:47;1.33;;;1.05;;
5987;SDS011;3021;51.000;6.980;2023-07-20T11:01:15;2.05;;;1.05;;
5987;SDS011;3021;51.000;6.980;2023-07-20T11:03:42;4.18;;;1.30;;
5987;SDS011;3021;51.000;6.980;2023-07-20T11:11:40;1.77;;;1.15;;
5987;SDS011;3021;51.000;6.980;2023-07-20T11:14:25;1.83;;;0.90;;
5987;SDS011;3021;51.000;6.980;2023-07-20T11:16:51;1.27;;;1.00;;
5987;SDS011;3021;51.000;6.980;2023-07-20T11:21:47;2.47;;;0.85;;
5987;SDS011;3021;51.000;6.980;2023-07-20T11:24:16;3.22;;;1.10;;
5987;SDS011;3021;51.000;6.980;2023-07-20T11:29:12;1.80;;;1.05;;
5987;SDS011;3021;51.000;6.980;2023-07-20T11:31:38;0.98;;;0.75;;
5987;SDS011;3021;51.000;6.980;2023-07-20T11:34:05;1.25;;;0.90;;
5987;SDS011;3021;51.000;6.980;2023-07-20T11:36:31;1.00;;;0.90;;
5987;SDS011;3021;51.000;6.980;2023-07-20T11:38:56;1.10;;;1.00;;
5987;SDS011;3021;51.000;6.980;2023-07-20T11:41:24;2.85;;;0.88;;
5987;SDS011;3021;51.000;6.980;2023-07-20T11:43:49;4.30;;;1.88;;
5987;SDS011;3021;51.000;6.980;2023-07-20T11:46:15;7.60;;;4.10;;
5987;SDS011;3021;51.000;6.980;2023-07-20T11:48:41;3.50;;;1.88;;
5987;SDS011;3021;51.000;6.980;2023-07-20T11:51:12;2.58;;;1.10;;
5987;SDS011;3021;51.000;6.980;2023-07-20T11:53:38;2.70;;;1.60;;
5987;SDS011;3021;51.000;6.980;2023-07-20T11:56:06;3.33;;;0.95;;
5987;SDS011;3021;51.000;6.980;2023-07-20T11:58:31;0.98;;;0.88;;
5987;SDS011;3021;51.000;6.980;2023-07-20T12:00:57;4.20;;;1.00;;
5987;SDS011;3021;51.000;6.980;2023-07-20T12:03:22;1.70;;;1.15;;
5987;SDS011;3021;51.000;6.980;2023-07-20T12:05:48;2.00;;;1.60;;
5987;SDS011;3021;51.000;6.980;2023-07-20T12:08:15;2.38;;;1.20;;
5987;SDS011;3021;51.000;6.980;2023-07-20T12:10:40;1.00;;;0.90;;
5987;SDS011;3021;51.000;6.980;2023-07-20T12:13:09;1.20;;;1.02;;
5987;SDS011;3021;51.000;6.980;2023-07-20T12:15:36;1.80;;;0.90;;
5987;SDS011;3021;51.000;6.980;2023-07-20T12:18:02;1.85;;;0.95;;
5987;SDS011;3021;51.000;6.980;2023-07-20T12:20:35;1.95;;;1.00;;
5987;SDS011;3021;51.000;6.980;2023-07-20T12:23:02;1.58;;;1.00;;
5987;SDS011;3021;51.000;6.980;2023-07-20T12:28:11;1.50;;;0.95;;
5987;SDS011;3021;51.000;6.980;2023-07-20T12:30:38;2.58;;;1.10;;
5987;SDS011;3021;51.000;6.980;2023-07-20T12:33:04;1.35;;;0.85;;
5987;SDS011;3021;51.000;6.980;2023-07-20T12:35:30;1.63;;;1.00;;
5987;SDS011;3021;51.000;6.980;2023-07-20T12:37:56;4.80;;;1.10;;
5987;SDS011;3021;51.000;6.980;2023-07-20T12:40:22;1.85;;;1.15;;
5987;SDS011;3021;51.000;6.980;2023-07-20T12:42:47;1.13;;;0.90;;
5987;SDS011;3021;51.000;6.980;2023-07-20T12:45:13;2.17;;;0.88;;
5987;SDS011;3021;51.000;6.980;2023-07-20T12:47:39;0.70;;;0.70;;
5987;SDS011;3021;51.000;6.980;2023-07-20T12:50:05;1.05;;;0.80;;
5987;SDS011;3021;51.000;6.980;2023-07-20T12:52:31;1.42;;;1.00;;
5987;SDS011;3021;51.000;6.980;2023-07-20T12:54:57;1.00;;;1.00;;
5987;SDS011;3021;51.000;6.980;2023-07-20T12:57:23;2.42;;;0.70;;
5987;SDS011;3021;51.000;6.980;2023-07-20T12:59:48;1.17;;;0.77;;
5987;SDS011;3021;51.000;6.980;2023-07-20T13:02:14;1.83;;;0.90;;
5987;SDS011;3021;51.000;6.980;2023-07-20T13:04:39;5.53;;;1.25;;
5987;SDS011;3021;51.000;6.980;2023-07-20T13:07:04;2.03;;;1.15;;
5987;SDS011;3021;51.000;6.980;2023-07-20T13:09:30;1.83;;;1.10;;
5987;SDS011;3021;51.000;6.980;2023-07-20T13:11:55;1.30;;;1.13;;
5987;SDS011;3021;51.000;6.980;2023-07-20T13:14:22;1.85;;;1.10;;
5987;SDS011;3021;51.000;6.980;2023-07-20T13:16:47;2.35;;;1.15;;
5987;SDS011;3021;51.000;6.980;2023-07-20T13:19:12;2.30;;;1.10;;
5987;SDS011;3021;51.000;6.980;2023-07-20T13:21:38;3.70;;;1.50;;
5987;SDS011;3021;51.000;6.980;2023-07-20T13:24:03;2.50;;;1.27;;
5987;SDS011;3021;51.000;6.980;2023-07-20T13:26:29;2.08;;;1.05;;
5987;SDS011;3021;51.000;6.980;2023-07-20T13:28:54;2.83;;;1.42;;
5987;SDS011;3021;51.000;6.980;2023-07-20T13:31:20;1.80;;;1.27;;
5987;SDS011;3021;51.000;6.980;2023-07-20T13:33:45;4.07;;;1.10;;
5987;SDS011;3021;51.000;6.980;2023-07-20T13:36:11;4.13;;;1.30;;
5987;SDS011;3021;51.000;6.980;2023-07-20T13:38:36;2.38;;;1.15;;
5987;SDS011;3021;51.000;6.980;2023-07-20T13:41:01;2.63;;;1.30;;
5987;SDS011;3021;51.000;6.980;2023-07-20T13:43:27;2.35;;;1.20;;
5987;SDS011;3021;51.000;6.980;2023-07-20T13:45:52;8.00;;;1.40;;
5987;SDS011;3021;51.000;6.980;2023-07-20T13:48:17;3.17;;;1.10;;
5987;SDS011;3021;51.000;6.980;2023-07-20T13:50:45;3.65;;;1.50;;
5987;SDS011;3021;51.000;6.980;2023-07-20T13:53:11;2.95;;;1.30;;
5987;SDS011;3021;51.000;6.980;2023-07-20T13:55:36;4.43;;;1.30;;
5987;SDS011;3021;51.000;6.980;2023-07-20T13:58:03;3.42;;;1.17;;
5987;SDS011;3021;51.000;6.980;2023-07-20T14:00:28;2.22;;;0.98;;
5987;SDS011;3021;51.000;6.980;2023-07-20T14:02:57;2.42;;;1.20;;
5987;SDS011;3021;51.000;6.980;2023-07-20T14:05:26;6.10;;;1.17;;
5987;SDS011;3021;51.000;6.980;2023-07-20T14:07:51;3.80;;;1.17;;
5987;SDS011;3021;51.000;6.980;2023-07-20T14:10:16;3.92;;;1.10;;
5987;SDS011;3021;51.000;6.980;2023-07-20T14:12:42;4.18;;;1.20;;
5987;SDS011;3021;51.000;6.980;2023-07-20T14:15:09;2.17;;;1.10;;
5987;SDS011;3021;51.000;6.980;2023-07-20T14:17:37;3.63;;;1.48;;
5987;SDS011;3021;51.000;6.980;2023-07-20T14:20:02;1.20;;;1.10;;
5987;SDS011;3021;51.000;6.980;2023-07-20T14:22:31;1.67;;;1.05;;
5987;SDS011;3021;51.000;6.980;2023-07-20T14:24:56;2.88;;;1.05;;
5987;SDS011;3021;51.000;6.980;2023-07-20T14:27:21;6.22;;;1.45;;
5987;SDS011;3021;51.000;6.980;2023-07-20T14:29:47;1.38;;;1.27;;
5987;SDS011;3021;51.000;6.980;2023-07-20T14:32:12;1.58;;;1.20;;
5987;SDS011;3021;51.000;6.980;2023-07-20T14:34:37;2.97;;;1.40;;
5987;SDS011;3021;51.000;6.980;2023-07-20T14:37:03;2.67;;;1.10;;
5987;SDS011;3021;51.000;6.980;2023-07-20T14:39:29;2.72;;;1.02;;
5987;SDS011;3021;51.000;6.980;2023-07-20T14:41:54;1.77;;;1.17;;
5987;SDS011;3021;51.000;6.980;2023-07-20T14:44:20;3.95;;;1.50;;
5987;SDS011;3021;51.000;6.980;2023-07-20T14:46:45;2.53;;;1.10;;
5987;SDS011;3021;51.000;6.980;2023-07-20T14:49:11;2.65;;;1.20;;
5987;SDS011;3021;51.000;6.980;2023-07-20T14:51:36;3.08;;;1.15;;
5987;SDS011;3021;51.000;6.980;2023-07-20T14:54:08;4.65;;;1.70;;
5987;SDS011;3021;51.000;6.980;2023-07-20T14:56:34;6.03;;;1.17;;
5987;SDS011;3021;51.000;6.980;2023-07-20T14:58:59;2.45;;;1.50;;
5987;SDS011;3021;51.000;6.980;2023-07-20T15:01:25;2.38;;;1.10;;
5987;SDS011;3021;51.000;6.980;2023-07-20T15:03:51;2.85;;;1.05;;
5987;SDS011;3021;51.000;6.980;2023-07-20T15:06:18;1.10;;;1.00;;
5987;SDS011;3021;51.000;6.980;2023-07-20T15:08:43;1.67;;;1.20;;
5987;SDS011;3021;51.000;6.980;2023-07-20T15:11:09;3.72;;;1.08;;
5987;SDS011;3021;51.000;6.980;2023-07-20T15:13:34;3.55;;;1.10;;
5987;SDS011;3021;51.000;6.980;2023-07-20T15:15:59;1.08;;;0.80;;
5987;SDS011;3021;51.000;6.980;2023-07-20T15:18:25;3.40;;;1.05;;
5987;SDS011;3021;51.000;6.980;2023-07-20T15:20:50;2.28;;;1.15;;
5987;SDS011;3021;51.000;6.980;2023-07-20T15:23:18;3.20;;;0.98;;
5987;SDS011;3021;51.000;6.980;2023-07-20T15:25:44;2.40;;;1.10;;
5987;SDS011;3021;51.000;6.980;2023-07-20T15:28:09;3.35;;;1.20;;
5987;SDS011;3021;51.000;6.980;2023-07-20T15:30:34;1.67;;;1.13;;
5987;SDS011;3021;51.000;6.980;2023-07-20T15:33:00;1.98;;;0.88;;
5987;SDS011;3021;51.000;6.980;2023-07-20T15:35:25;8.13;;;1.63;;
5987;SDS011;3021;51.000;6.980;2023-07-20T15:37:50;1.40;;;1.13;;
5987;SDS011;3021;51.000;6.980;2023-07-20T15:40:16;4.55;;;1.40;;